sensor_id;sensor_type;location;lat;lon;timestamp;P1;durP1;ratioP1;P2;durP2;ratioP2
77214;SDS011;66210;53.282;9.864;2023-07-31T00:02:09;1.70;;;1.50;;
77214;SDS011;66210;53.282;9.864;2023-07-31T00:04:36;5.57;;;1.73;;
77214;SDS011;66210;53.282;9.864;2023-07-31T00:07:03;6.35;;;1.83;;
77214;SDS011;66210;53.282;9.864;2023-07-31T00:09:31;9.07;;;1.80;;
77214;SDS011;66210;53.282;9.864;2023-07-31T00:11:57;4.57;;;2.22;;
77214;SDS011;66210;53.282;9.864;2023-07-31T00:14:24;4.00;;;1.60;;
77214;SDS011;66210;53.282;9.864;2023-07-31T00:16:51;6.85;;;2.00;;
77214;SDS011;66210;53.282;9.864;2023-07-31T00:19:18;8.10;;;1.88;;
77214;SDS011;66210;53.282;9.864;2023-07-31T00:21:45;6.65;;;1.73;;
77214;SDS011;66210;53.282;9.864;2023-07-31T00:24:11;7.93;;;1.70;;
77214;SDS011;66210;53.282;9.864;2023-07-31T00:26:38;5.78;;;2.38;;
77214;SDS011;66210;53.282;9.864;2023-07-31T00:29:04;6.90;;;1.80;;
77214;SDS011;66210;53.282;9.864;2023-07-31T00:31:31;4.07;;;1.83;;
77214;SDS011;66210;53.282;9.864;2023-07-31T00:33:58;6.13;;;2.55;;
77214;SDS011;66210;53.282;9.864;2023-07-31T00:36:24;2.78;;;1.73;;
77214;SDS011;66210;53.282;9.864;2023-07-31T00:38:51;2.75;;;1.48;;
77214;SDS011;66210;53.282;9.864;2023-07-31T00:41:17;5.30;;;1.85;;
77214;SDS011;66210;53.282;9.864;2023-07-31T00:43:44;4.65;;;1.55;;
77214;SDS011;66210;53.282;9.864;2023-07-31T00:46:10;3.05;;;1.67;;
77214;SDS011;66210;53.282;9.864;2023-07-31T00:48:37;4.22;;;1.70;;
77214;SDS011;66210;53.282;9.864;2023-07-31T00:51:05;7.97;;;1.88;;
77214;SDS011;66210;53.282;9.864;2023-07-31T00:53:32;3.70;;;1.65;;
77214;SDS011;66210;53.282;9.864;2023-07-31T00:55:59;5.40;;;1.65;;
77214;SDS011;66210;53.282;9.864;2023-07-31T00:58:26;2.63;;;1.50;;
77214;SDS011;66210;53.282;9.864;2023-07-31T01:00:53;4.90;;;1.60;;
77214;SDS011;66210;53.282;9.864;2023-07-31T01:03:19;3.85;;;1.38;;
77214;SDS011;66210;53.282;9.864;2023-07-31T01:05:49;5.35;;;1.77;;
77214;SDS011;66210;53.282;9.864;2023-07-31T01:11:30;4.60;;;2.13;;
77214;SDS011;66210;53.282;9.864;2023-07-31T01:13:59;4.47;;;1.80;;
77214;SDS011;66210;53.282;9.864;2023-07-31T01:16:26;4.50;;;1.88;;
77214;SDS011;66210;53.282;9.864;2023-07-31T01:18:53;6.28;;;1.95;;
77214;SDS011;66210;53.282;9.864;2023-07-31T01:26:47;6.07;;;1.88;;
77214;SDS011;66210;53.282;9.864;2023-07-31T01:31:53;3.85;;;1.95;;
77214;SDS011;66210;53.282;9.864;2023-07-31T01:34:21;4.63;;;1.58;;
77214;SDS011;66210;53.282;9.864;2023-07-31T01:36:48;3.63;;;1.70;;
77214;SDS011;66210;53.282;9.864;2023-07-31T01:39:15;5.50;;;1.98;;
77214;SDS011;66210;53.282;9.864;2023-07-31T01:41:42;2.83;;;1.60;;
77214;SDS011;66210;53.282;9.864;2023-07-31T01:44:08;3.55;;;1.60;;
77214;SDS011;66210;53.282;9.864;2023-07-31T01:46:35;3.72;;;1.67;;
77214;SDS011;66210;53.282;9.864;2023-07-31T01:49:01;2.80;;;1.73;;
77214;SDS011;66210;53.282;9.864;2023-07-31T01:51:28;2.58;;;1.70;;
77214;SDS011;66210;53.282;9.864;2023-07-31T01:53:55;2.88;;;1.38;;
77214;SDS011;66210;53.282;9.864;2023-07-31T01:56:21;4.82;;;1.70;;
77214;SDS011;66210;53.282;9.864;2023-07-31T01:58:48;2.13;;;1.40;;
77214;SDS011;66210;53.282;9.864;2023-07-31T02:01:14;4.30;;;1.80;;
77214;SDS011;66210;53.282;9.864;2023-07-31T02:03:41;6.57;;;2.33;;
77214;SDS011;66210;53.282;9.864;2023-07-31T02:06:08;4.13;;;1.55;;
77214;SDS011;66210;53.282;9.864;2023-07-31T02:08:35;2.42;;;1.70;;
77214;SDS011;66210;53.282;9.864;2023-07-31T02:11:01;5.95;;;2.25;;
77214;SDS011;66210;53.282;9.864;2023-07-31T02:13:28;5.57;;;1.90;;
77214;SDS011;66210;53.282;9.864;2023-07-31T02:15:55;2.38;;;1.65;;
77214;SDS011;66210;53.282;9.864;2023-07-31T02:18:21;4.57;;;1.90;;
77214;SDS011;66210;53.282;9.864;2023-07-31T02:20:49;3.10;;;1.63;;
77214;SDS011;66210;53.282;9.864;2023-07-31T02:23:17;3.88;;;1.75;;
77214;SDS011;66210;53.282;9.864;2023-07-31T02:25:45;6.85;;;2.13;;
77214;SDS011;66210;53.282;9.864;2023-07-31T02:28:12;4.38;;;2.10;;
77214;SDS011;66210;53.282;9.864;2023-07-31T02:30:39;6.47;;;2.35;;
77214;SDS011;66210;53.282;9.864;2023-07-31T02:33:06;3.25;;;2.17;;
77214;SDS011;66210;53.282;9.864;2023-07-31T02:35:32;5.13;;;1.92;;
77214;SDS011;66210;53.282;9.864;2023-07-31T02:37:59;4.85;;;1.77;;
77214;SDS011;66210;53.282;9.864;2023-07-31T02:40:26;7.00;;;2.30;;
77214;SDS011;66210;53.282;9.864;2023-07-31T02:42:53;9.10;;;2.20;;
77214;SDS011;66210;53.282;9.864;2023-07-31T02:45:20;5.28;;;1.85;;
77214;SDS011;66210;53.282;9.864;2023-07-31T02:47:46;6.80;;;2.03;;
77214;SDS011;66210;53.282;9.864;2023-07-31T02:50:13;9.55;;;2.40;;
77214;SDS011;66210;53.282;9.864;2023-07-31T02:52:40;3.35;;;1.90;;
77214;SDS011;66210;53.282;9.864;2023-07-31T02:55:07;6.25;;;2.20;;
77214;SDS011;66210;53.282;9.864;2023-07-31T02:57:34;6.25;;;2.10;;
77214;SDS011;66210;53.282;9.864;2023-07-31T03:00:01;7.10;;;2.15;;
77214;SDS011;66210;53.282;9.864;2023-07-31T03:02:29;4.93;;;1.90;;
77214;SDS011;66210;53.282;9.864;2023-07-31T03:04:55;4.60;;;2.10;;
77214;SDS011;66210;53.282;9.864;2023-07-31T03:07:22;3.28;;;1.98;;
77214;SDS011;66210;53.282;9.864;2023-07-31T03:09:49;11.45;;;2.10;;
77214;SDS011;66210;53.282;9.864;2023-07-31T03:12:16;4.70;;;2.08;;
77214;SDS011;66210;53.282;9.864;2023-07-31T03:14:43;5.35;;;2.42;;
77214;SDS011;66210;53.282;9.864;2023-07-31T03:17:09;5.93;;;2.25;;
77214;SDS011;66210;53.282;9.864;2023-07-31T03:19:36;4.45;;;2.22;;
77214;SDS011;66210;53.282;9.864;2023-07-31T03:22:03;5.07;;;2.80;;
77214;SDS011;66210;53.282;9.864;2023-07-31T03:24:30;5.68;;;2.55;;
77214;SDS011;66210;53.282;9.864;2023-07-31T03:26:57;6.55;;;2.60;;
77214;SDS011;66210;53.282;9.864;2023-07-31T03:29:24;5.30;;;3.15;;
77214;SDS011;66210;53.282;9.864;2023-07-31T03:31:50;4.95;;;3.00;;
77214;SDS011;66210;53.282;9.864;2023-07-31T03:34:17;7.55;;;3.80;;
77214;SDS011;66210;53.282;9.864;2023-07-31T03:36:43;6.32;;;3.55;;
77214;SDS011;66210;53.282;9.864;2023-07-31T03:39:10;5.38;;;3.42;;
77214;SDS011;66210;53.282;9.864;2023-07-31T03:41:37;6.95;;;3.67;;
77214;SDS011;66210;53.282;9.864;2023-07-31T03:44:03;12.02;;;3.85;;
77214;SDS011;66210;53.282;9.864;2023-07-31T03:46:31;6.53;;;3.65;;
77214;SDS011;66210;53.282;9.864;2023-07-31T03:48:58;5.28;;;3.75;;
77214;SDS011;66210;53.282;9.864;2023-07-31T03:51:25;5.60;;;3.33;;
77214;SDS011;66210;53.282;9.864;2023-07-31T03:53:52;4.78;;;3.60;;
77214;SDS011;66210;53.282;9.864;2023-07-31T03:56:19;6.70;;;3.50;;
77214;SDS011;66210;53.282;9.864;2023-07-31T03:58:45;8.45;;;3.85;;
77214;SDS011;66210;53.282;9.864;2023-07-31T04:01:12;7.18;;;4.20;;
77214;SDS011;66210;53.282;9.864;2023-07-31T04:03:38;8.20;;;3.92;;
77214;SDS011;66210;53.282;9.864;2023-07-31T04:06:06;7.57;;;4.28;;
77214;SDS011;66210;53.282;9.864;2023-07-31T04:08:33;6.75;;;3.70;;
77214;SDS011;66210;53.282;9.864;2023-07-31T04:11:00;4.95;;;3.63;;
77214;SDS011;66210;53.282;9.864;2023-07-31T04:13:26;5.40;;;3.83;;
77214;SDS011;66210;53.282;9.864;2023-07-31T04:15:56;7.45;;;4.13;;
77214;SDS011;66210;53.282;9.864;2023-07-31T04:18:24;6.95;;;4.30;;
77214;SDS011;66210;53.282;9.864;2023-07-31T04:20:51;6.10;;;4.18;;
77214;SDS011;66210;53.282;9.864;2023-07-31T04:23:18;6.60;;;4.07;;
77214;SDS011;66210;53.282;9.864;2023-07-31T04:25:44;5.10;;;4.00;;
77214;SDS011;66210;53.282;9.864;2023-07-31T04:28:11;5.55;;;3.90;;
77214;SDS011;66210;53.282;9.864;2023-07-31T04:30:38;6.07;;;4.07;;
77214;SDS011;66210;53.282;9.864;2023-07-31T04:33:05;6.10;;;4.30;;
77214;SDS011;66210;53.282;9.864;2023-07-31T04:35:32;5.25;;;4.22;;
77214;SDS011;66210;53.282;9.864;2023-07-31T04:37:59;8.98;;;4.38;;
77214;SDS011;66210;53.282;9.864;2023-07-31T04:40:25;5.30;;;3.92;;
77214;SDS011;66210;53.282;9.864;2023-07-31T04:42:52;4.60;;;3.80;;
77214;SDS011;66210;53.282;9.864;2023-07-31T04:45:19;4.05;;;3.53;;
77214;SDS011;66210;53.282;9.864;2023-07-31T04:47:45;7.22;;;3.95;;
77214;SDS011;66210;53.282;9.864;2023-07-31T04:50:12;7.75;;;4.43;;
77214;SDS011;66210;53.282;9.864;2023-07-31T04:52:38;4.70;;;3.72;;
77214;SDS011;66210;53.282;9.864;2023-07-31T04:55:05;5.97;;;3.75;;
77214;SDS011;66210;53.282;9.864;2023-07-31T04:57:32;7.35;;;4.15;;
77214;SDS011;66210;53.282;9.864;2023-07-31T04:59:58;7.57;;;4.10;;
77214;SDS011;66210;53.282;9.864;2023-07-31T05:02:25;7.57;;;4.53;;
77214;SDS011;66210;53.282;9.864;2023-07-31T05:04:51;4.93;;;4.38;;
77214;SDS011;66210;53.282;9.864;2023-07-31T05:07:18;5.53;;;4.35;;
77214;SDS011;66210;53.282;9.864;2023-07-31T05:09:45;5.47;;;4.18;;
77214;SDS011;66210;53.282;9.864;2023-07-31T05:12:11;5.72;;;4.18;;
77214;SDS011;66210;53.282;9.864;2023-07-31T05:14:38;7.88;;;4.43;;
77214;SDS011;66210;53.282;9.864;2023-07-31T05:17:05;4.95;;;4.00;;
77214;SDS011;66210;53.282;9.864;2023-07-31T05:19:32;5.32;;;4.00;;
77214;SDS011;66210;53.282;9.864;2023-07-31T05:21:59;6.95;;;3.95;;
77214;SDS011;66210;53.282;9.864;2023-07-31T05:24:26;5.40;;;4.00;;
77214;SDS011;66210;53.282;9.864;2023-07-31T05:26:52;4.35;;;3.50;;
77214;SDS011;66210;53.282;9.864;2023-07-31T05:29:19;4.95;;;3.42;;
77214;SDS011;66210;53.282;9.864;2023-07-31T05:31:47;4.40;;;3.75;;
77214;SDS011;66210;53.282;9.864;2023-07-31T05:34:13;4.53;;;3.53;;
77214;SDS011;66210;53.282;9.864;2023-07-31T05:36:40;4.80;;;3.05;;
77214;SDS011;66210;53.282;9.864;2023-07-31T05:39:07;5.47;;;3.67;;
77214;SDS011;66210;53.282;9.864;2023-07-31T05:41:35;4.30;;;3.30;;
77214;SDS011;66210;53.282;9.864;2023-07-31T05:44:02;5.22;;;3.05;;
77214;SDS011;66210;53.282;9.864;2023-07-31T05:46:29;7.00;;;3.22;;
77214;SDS011;66210;53.282;9.864;2023-07-31T05:48:58;4.45;;;3.40;;
77214;SDS011;66210;53.282;9.864;2023-07-31T05:53:54;3.42;;;2.50;;
77214;SDS011;66210;53.282;9.864;2023-07-31T05:56:21;3.00;;;2.55;;
77214;SDS011;66210;53.282;9.864;2023-07-31T05:58:48;5.15;;;2.80;;
77214;SDS011;66210;53.282;9.864;2023-07-31T06:01:16;3.03;;;2.40;;
77214;SDS011;66210;53.282;9.864;2023-07-31T06:03:43;3.30;;;2.50;;
77214;SDS011;66210;53.282;9.864;2023-07-31T06:06:11;2.53;;;2.20;;
77214;SDS011;66210;53.282;9.864;2023-07-31T06:08:37;5.43;;;2.30;;
77214;SDS011;66210;53.282;9.864;2023-07-31T06:11:04;3.55;;;2.50;;
77214;SDS011;66210;53.282;9.864;2023-07-31T06:13:32;2.42;;;2.15;;
77214;SDS011;66210;53.282;9.864;2023-07-31T06:15:58;2.88;;;2.35;;
77214;SDS011;66210;53.282;9.864;2023-07-31T06:18:25;3.35;;;2.33;;
77214;SDS011;66210;53.282;9.864;2023-07-31T06:20:52;3.35;;;2.08;;
77214;SDS011;66210;53.282;9.864;2023-07-31T06:23:20;2.83;;;2.20;;
77214;SDS011;66210;53.282;9.864;2023-07-31T06:25:47;3.85;;;2.03;;
77214;SDS011;66210;53.282;9.864;2023-07-31T06:28:13;2.28;;;2.08;;
77214;SDS011;66210;53.282;9.864;2023-07-31T06:30:40;2.97;;;2.10;;
77214;SDS011;66210;53.282;9.864;2023-07-31T06:33:06;2.15;;;1.90;;
77214;SDS011;66210;53.282;9.864;2023-07-31T06:35:33;2.95;;;2.17;;
77214;SDS011;66210;53.282;9.864;2023-07-31T06:38:00;3.08;;;2.10;;
77214;SDS011;66210;53.282;9.864;2023-07-31T06:40:28;3.00;;;2.20;;
77214;SDS011;66210;53.282;9.864;2023-07-31T06:42:55;3.55;;;2.13;;
77214;SDS011;66210;53.282;9.864;2023-07-31T06:45:21;2.45;;;1.77;;
77214;SDS011;66210;53.282;9.864;2023-07-31T06:47:48;2.17;;;1.80;;
77214;SDS011;66210;53.282;9.864;2023-07-31T06:50:14;2.88;;;1.90;;
77214;SDS011;66210;53.282;9.864;2023-07-31T06:52:41;2.08;;;1.65;;
77214;SDS011;66210;53.282;9.864;2023-07-31T06:55:18;2.50;;;1.65;;
77214;SDS011;66210;53.282;9.864;2023-07-31T06:57:46;2.15;;;1.80;;
77214;SDS011;66210;53.282;9.864;2023-07-31T07:00:15;2.55;;;1.50;;
77214;SDS011;66210;53.282;9.864;2023-07-31T07:02:43;5.32;;;1.63;;
77214;SDS011;66210;53.282;9.864;2023-07-31T07:05:10;2.92;;;1.65;;
77214;SDS011;66210;53.282;9.864;2023-07-31T07:07:36;1.88;;;1.48;;
77214;SDS011;66210;53.282;9.864;2023-07-31T07:10:03;1.48;;;1.38;;
77214;SDS011;66210;53.282;9.864;2023-07-31T07:12:31;2.47;;;1.50;;
77214;SDS011;66210;53.282;9.864;2023-07-31T07:14:59;2.25;;;1.50;;
77214;SDS011;66210;53.282;9.864;2023-07-31T07:17:27;1.80;;;1.42;;
77214;SDS011;66210;53.282;9.864;2023-07-31T07:19:55;3.47;;;1.70;;
77214;SDS011;66210;53.282;9.864;2023-07-31T07:22:22;2.13;;;1.40;;
77214;SDS011;66210;53.282;9.864;2023-07-31T07:24:49;1.55;;;1.40;;
77214;SDS011;66210;53.282;9.864;2023-07-31T07:27:15;2.05;;;1.73;;
77214;SDS011;66210;53.282;9.864;2023-07-31T07:29:42;2.33;;;1.67;;
77214;SDS011;66210;53.282;9.864;2023-07-31T07:32:09;1.40;;;1.30;;
77214;SDS011;66210;53.282;9.864;2023-07-31T07:34:35;1.77;;;1.42;;
77214;SDS011;66210;53.282;9.864;2023-07-31T07:37:02;2.65;;;1.42;;
77214;SDS011;66210;53.282;9.864;2023-07-31T07:39:28;2.85;;;1.73;;
77214;SDS011;66210;53.282;9.864;2023-07-31T07:41:55;1.40;;;1.30;;
77214;SDS011;66210;53.282;9.864;2023-07-31T07:44:21;1.90;;;1.15;;
77214;SDS011;66210;53.282;9.864;2023-07-31T07:46:48;1.50;;;1.40;;
77214;SDS011;66210;53.282;9.864;2023-07-31T07:49:15;3.67;;;1.60;;
77214;SDS011;66210;53.282;9.864;2023-07-31T07:51:41;1.13;;;1.13;;
77214;SDS011;66210;53.282;9.864;2023-07-31T07:54:08;1.52;;;1.40;;
77214;SDS011;66210;53.282;9.864;2023-07-31T07:56:34;1.10;;;1.10;;
77214;SDS011;66210;53.282;9.864;2023-07-31T07:59:03;1.38;;;1.27;;
77214;SDS011;66210;53.282;9.864;2023-07-31T08:01:29;1.10;;;1.00;;
77214;SDS011;66210;53.282;9.864;2023-07-31T08:03:56;2.60;;;1.15;;
77214;SDS011;66210;53.282;9.864;2023-07-31T08:06:23;1.25;;;1.15;;
77214;SDS011;66210;53.282;9.864;2023-07-31T08:08:49;1.23;;;1.13;;
77214;SDS011;66210;53.282;9.864;2023-07-31T08:11:16;1.10;;;1.00;;
77214;SDS011;66210;53.282;9.864;2023-07-31T08:13:43;1.02;;;0.93;;
77214;SDS011;66210;53.282;9.864;2023-07-31T08:16:09;1.23;;;1.13;;
77214;SDS011;66210;53.282;9.864;2023-07-31T08:18:36;1.10;;;1.00;;
77214;SDS011;66210;53.282;9.864;2023-07-31T08:21:03;0.82;;;0.80;;
77214;SDS011;66210;53.282;9.864;2023-07-31T08:23:30;0.90;;;0.90;;
77214;SDS011;66210;53.282;9.864;2023-07-31T08:25:56;1.48;;;1.02;;
77214;SDS011;66210;53.282;9.864;2023-07-31T08:28:23;0.80;;;0.80;;
77214;SDS011;66210;53.282;9.864;2023-07-31T08:30:49;2.97;;;0.68;;
77214;SDS011;66210;53.282;9.864;2023-07-31T08:33:17;0.98;;;0.80;;
77214;SDS011;66210;53.282;9.864;2023-07-31T08:35:43;0.70;;;0.70;;
77214;SDS011;66210;53.282;9.864;2023-07-31T08:38:10;0.68;;;0.68;;
77214;SDS011;66210;53.282;9.864;2023-07-31T08:40:38;0.90;;;0.60;;
77214;SDS011;66210;53.282;9.864;2023-07-31T08:43:04;0.70;;;0.70;;
77214;SDS011;66210;53.282;9.864;2023-07-31T08:45:31;1.23;;;0.85;;
77214;SDS011;66210;53.282;9.864;2023-07-31T08:47:58;1.40;;;1.10;;
77214;SDS011;66210;53.282;9.864;2023-07-31T08:50:25;1.27;;;0.63;;
77214;SDS011;66210;53.282;9.864;2023-07-31T08:52:52;1.88;;;1.00;;
77214;SDS011;66210;53.282;9.864;2023-07-31T08:55:21;1.83;;;0.82;;
77214;SDS011;66210;53.282;9.864;2023-07-31T08:57:51;1.42;;;1.13;;
77214;SDS011;66210;53.282;9.864;2023-07-31T09:00:19;1.67;;;1.00;;
77214;SDS011;66210;53.282;9.864;2023-07-31T09:03:01;2.05;;;1.40;;
77214;SDS011;66210;53.282;9.864;2023-07-31T09:05:30;2.42;;;1.38;;
77214;SDS011;66210;53.282;9.864;2023-07-31T09:07:57;2.80;;;1.60;;
77214;SDS011;66210;53.282;9.864;2023-07-31T09:10:24;2.45;;;1.67;;
77214;SDS011;66210;53.282;9.864;2023-07-31T09:12:51;4.18;;;2.30;;
77214;SDS011;66210;53.282;9.864;2023-07-31T09:15:18;3.17;;;2.10;;
77214;SDS011;66210;53.282;9.864;2023-07-31T09:18:01;4.55;;;2.47;;
77214;SDS011;66210;53.282;9.864;2023-07-31T09:20:29;7.47;;;2.65;;
77214;SDS011;66210;53.282;9.864;2023-07-31T09:22:55;6.90;;;3.50;;
77214;SDS011;66210;53.282;9.864;2023-07-31T09:25:23;7.53;;;3.10;;
77214;SDS011;66210;53.282;9.864;2023-07-31T09:27:59;7.72;;;3.60;;
77214;SDS011;66210;53.282;9.864;2023-07-31T09:30:28;13.48;;;3.70;;
77214;SDS011;66210;53.282;9.864;2023-07-31T09:33:02;13.60;;;4.97;;
77214;SDS011;66210;53.282;9.864;2023-07-31T09:35:34;12.25;;;5.72;;
77214;SDS011;66210;53.282;9.864;2023-07-31T09:38:11;13.40;;;5.22;;
77214;SDS011;66210;53.282;9.864;2023-07-31T09:40:40;13.30;;;5.55;;
77214;SDS011;66210;53.282;9.864;2023-07-31T09:43:09;10.90;;;5.70;;
77214;SDS011;66210;53.282;9.864;2023-07-31T09:45:38;12.88;;;5.35;;
77214;SDS011;66210;53.282;9.864;2023-07-31T09:48:08;14.32;;;6.22;;
77214;SDS011;66210;53.282;9.864;2023-07-31T09:50:37;14.90;;;6.32;;
77214;SDS011;66210;53.282;9.864;2023-07-31T09:53:05;14.88;;;6.90;;
77214;SDS011;66210;53.282;9.864;2023-07-31T09:55:33;15.25;;;5.82;;
77214;SDS011;66210;53.282;9.864;2023-07-31T09:58:04;22.00;;;6.60;;
77214;SDS011;66210;53.282;9.864;2023-07-31T10:00:32;17.92;;;6.18;;
77214;SDS011;66210;53.282;9.864;2023-07-31T10:03:10;12.85;;;6.47;;
77214;SDS011;66210;53.282;9.864;2023-07-31T10:05:42;15.43;;;6.03;;
77214;SDS011;66210;53.282;9.864;2023-07-31T10:08:14;14.55;;;6.43;;
77214;SDS011;66210;53.282;9.864;2023-07-31T10:10:45;15.77;;;6.30;;
77214;SDS011;66210;53.282;9.864;2023-07-31T10:13:12;15.43;;;6.38;;
77214;SDS011;66210;53.282;9.864;2023-07-31T10:15:40;13.43;;;6.40;;
77214;SDS011;66210;53.282;9.864;2023-07-31T10:18:08;15.57;;;6.13;;
77214;SDS011;66210;53.282;9.864;2023-07-31T10:20:35;13.57;;;6.75;;
77214;SDS011;66210;53.282;9.864;2023-07-31T10:23:03;16.05;;;6.18;;
77214;SDS011;66210;53.282;9.864;2023-07-31T10:25:30;19.85;;;6.68;;
77214;SDS011;66210;53.282;9.864;2023-07-31T10:27:58;15.23;;;7.20;;
77214;SDS011;66210;53.282;9.864;2023-07-31T10:30:26;20.00;;;6.57;;
77214;SDS011;66210;53.282;9.864;2023-07-31T10:32:56;15.05;;;6.18;;
77214;SDS011;66210;53.282;9.864;2023-07-31T10:35:24;11.77;;;5.80;;
77214;SDS011;66210;53.282;9.864;2023-07-31T10:37:51;15.88;;;6.10;;
77214;SDS011;66210;53.282;9.864;2023-07-31T10:40:19;16.38;;;6.32;;
77214;SDS011;66210;53.282;9.864;2023-07-31T10:42:51;15.18;;;5.97;;
77214;SDS011;66210;53.282;9.864;2023-07-31T10:45:27;11.63;;;5.75;;
77214;SDS011;66210;53.282;9.864;2023-07-31T10:48:00;12.77;;;5.80;;
77214;SDS011;66210;53.282;9.864;2023-07-31T10:50:28;13.63;;;5.07;;
77214;SDS011;66210;53.282;9.864;2023-07-31T10:52:59;16.75;;;5.70;;
77214;SDS011;66210;53.282;9.864;2023-07-31T10:55:28;12.45;;;5.32;;
77214;SDS011;66210;53.282;9.864;2023-07-31T10:57:55;13.80;;;5.05;;
77214;SDS011;66210;53.282;9.864;2023-07-31T11:00:27;9.20;;;5.07;;
77214;SDS011;66210;53.282;9.864;2023-07-31T11:08:29;9.23;;;3.67;;
77214;SDS011;66210;53.282;9.864;2023-07-31T11:13:27;7.00;;;3.88;;
77214;SDS011;66210;53.282;9.864;2023-07-31T11:15:54;10.88;;;4.22;;
77214;SDS011;66210;53.282;9.864;2023-07-31T11:18:21;8.30;;;3.60;;
77214;SDS011;66210;53.282;9.864;2023-07-31T11:20:48;7.82;;;3.45;;
77214;SDS011;66210;53.282;9.864;2023-07-31T11:23:16;6.63;;;3.40;;
77214;SDS011;66210;53.282;9.864;2023-07-31T11:25:43;7.50;;;3.38;;
77214;SDS011;66210;53.282;9.864;2023-07-31T11:28:14;4.93;;;2.88;;
77214;SDS011;66210;53.282;9.864;2023-07-31T11:30:42;7.60;;;3.00;;
77214;SDS011;66210;53.282;9.864;2023-07-31T11:33:10;6.07;;;2.70;;
77214;SDS011;66210;53.282;9.864;2023-07-31T11:35:42;7.40;;;2.72;;
77214;SDS011;66210;53.282;9.864;2023-07-31T11:38:21;5.80;;;2.65;;
77214;SDS011;66210;53.282;9.864;2023-07-31T11:40:50;6.07;;;2.35;;
77214;SDS011;66210;53.282;9.864;2023-07-31T11:43:17;5.13;;;2.67;;
77214;SDS011;66210;53.282;9.864;2023-07-31T11:45:48;5.05;;;2.50;;
77214;SDS011;66210;53.282;9.864;2023-07-31T11:48:22;4.70;;;3.08;;
77214;SDS011;66210;53.282;9.864;2023-07-31T11:50:51;4.70;;;2.70;;
77214;SDS011;66210;53.282;9.864;2023-07-31T11:53:20;3.75;;;2.20;;
77214;SDS011;66210;53.282;9.864;2023-07-31T11:55:52;3.22;;;2.13;;
77214;SDS011;66210;53.282;9.864;2023-07-31T11:58:20;3.47;;;2.05;;
77214;SDS011;66210;53.282;9.864;2023-07-31T12:00:47;3.78;;;2.22;;
77214;SDS011;66210;53.282;9.864;2023-07-31T12:03:15;4.53;;;2.38;;
77214;SDS011;66210;53.282;9.864;2023-07-31T12:05:42;3.75;;;1.98;;
77214;SDS011;66210;53.282;9.864;2023-07-31T12:08:09;2.33;;;1.88;;
77214;SDS011;66210;53.282;9.864;2023-07-31T12:10:40;5.82;;;1.92;;
77214;SDS011;66210;53.282;9.864;2023-07-31T12:13:11;4.95;;;2.13;;
77214;SDS011;66210;53.282;9.864;2023-07-31T12:15:41;2.60;;;1.90;;
77214;SDS011;66210;53.282;9.864;2023-07-31T12:18:10;3.88;;;2.10;;
77214;SDS011;66210;53.282;9.864;2023-07-31T12:23:12;2.20;;;1.70;;
77214;SDS011;66210;53.282;9.864;2023-07-31T12:25:40;2.28;;;1.70;;
77214;SDS011;66210;53.282;9.864;2023-07-31T12:28:07;3.70;;;1.88;;
77214;SDS011;66210;53.282;9.864;2023-07-31T12:33:13;1.85;;;1.50;;
77214;SDS011;66210;53.282;9.864;2023-07-31T12:35:42;3.20;;;1.65;;
77214;SDS011;66210;53.282;9.864;2023-07-31T12:38:13;4.72;;;1.70;;
77214;SDS011;66210;53.282;9.864;2023-07-31T12:40:41;3.97;;;1.80;;
77214;SDS011;66210;53.282;9.864;2023-07-31T12:43:08;4.18;;;1.80;;
77214;SDS011;66210;53.282;9.864;2023-07-31T12:45:35;2.05;;;1.70;;
77214;SDS011;66210;53.282;9.864;2023-07-31T12:48:02;2.60;;;1.80;;
77214;SDS011;66210;53.282;9.864;2023-07-31T12:50:28;3.78;;;1.75;;
77214;SDS011;66210;53.282;9.864;2023-07-31T12:52:56;2.38;;;1.55;;
77214;SDS011;66210;53.282;9.864;2023-07-31T12:55:23;1.75;;;1.60;;
77214;SDS011;66210;53.282;9.864;2023-07-31T12:57:50;2.55;;;1.60;;
77214;SDS011;66210;53.282;9.864;2023-07-31T13:00:17;1.90;;;1.70;;
77214;SDS011;66210;53.282;9.864;2023-07-31T13:02:43;2.40;;;1.60;;
77214;SDS011;66210;53.282;9.864;2023-07-31T13:05:10;4.65;;;1.77;;
77214;SDS011;66210;53.282;9.864;2023-07-31T13:07:37;1.58;;;1.40;;
77214;SDS011;66210;53.282;9.864;2023-07-31T13:10:05;1.75;;;1.50;;
77214;SDS011;66210;53.282;9.864;2023-07-31T13:12:32;2.42;;;1.70;;
77214;SDS011;66210;53.282;9.864;2023-07-31T13:14:59;4.65;;;1.40;;
77214;SDS011;66210;53.282;9.864;2023-07-31T13:17:26;2.97;;;1.52;;
77214;SDS011;66210;53.282;9.864;2023-07-31T13:19:53;4.13;;;1.75;;
77214;SDS011;66210;53.282;9.864;2023-07-31T13:22:19;4.50;;;1.95;;
77214;SDS011;66210;53.282;9.864;2023-07-31T13:24:46;2.83;;;1.90;;
77214;SDS011;66210;53.282;9.864;2023-07-31T13:27:12;2.50;;;1.50;;
77214;SDS011;66210;53.282;9.864;2023-07-31T13:29:39;4.35;;;1.52;;
77214;SDS011;66210;53.282;9.864;2023-07-31T13:32:06;4.50;;;1.50;;
77214;SDS011;66210;53.282;9.864;2023-07-31T13:34:32;6.35;;;1.50;;
77214;SDS011;66210;53.282;9.864;2023-07-31T13:36:59;3.80;;;1.33;;
77214;SDS011;66210;53.282;9.864;2023-07-31T13:39:26;1.85;;;1.30;;
77214;SDS011;66210;53.282;9.864;2023-07-31T13:41:52;4.13;;;1.40;;
77214;SDS011;66210;53.282;9.864;2023-07-31T13:44:19;2.00;;;1.50;;
77214;SDS011;66210;53.282;9.864;2023-07-31T13:46:45;3.53;;;1.70;;
77214;SDS011;66210;53.282;9.864;2023-07-31T13:49:12;3.70;;;1.70;;
77214;SDS011;66210;53.282;9.864;2023-07-31T13:51:38;2.13;;;1.38;;
77214;SDS011;66210;53.282;9.864;2023-07-31T13:54:05;1.63;;;1.50;;
77214;SDS011;66210;53.282;9.864;2023-07-31T13:56:35;2.05;;;1.63;;
77214;SDS011;66210;53.282;9.864;2023-07-31T13:59:01;1.98;;;1.67;;
77214;SDS011;66210;53.282;9.864;2023-07-31T14:01:28;5.72;;;1.95;;
77214;SDS011;66210;53.282;9.864;2023-07-31T14:03:55;2.25;;;1.80;;
77214;SDS011;66210;53.282;9.864;2023-07-31T14:06:21;3.15;;;1.90;;
77214;SDS011;66210;53.282;9.864;2023-07-31T14:08:48;2.22;;;1.90;;
77214;SDS011;66210;53.282;9.864;2023-07-31T14:11:14;2.38;;;2.00;;
77214;SDS011;66210;53.282;9.864;2023-07-31T14:13:41;3.63;;;1.92;;
77214;SDS011;66210;53.282;9.864;2023-07-31T14:16:08;3.60;;;2.15;;
77214;SDS011;66210;53.282;9.864;2023-07-31T14:18:36;4.88;;;2.47;;
77214;SDS011;66210;53.282;9.864;2023-07-31T14:21:02;6.05;;;2.47;;
77214;SDS011;66210;53.282;9.864;2023-07-31T14:23:29;3.10;;;2.50;;
77214;SDS011;66210;53.282;9.864;2023-07-31T14:25:56;3.47;;;2.30;;
77214;SDS011;66210;53.282;9.864;2023-07-31T14:28:22;4.95;;;2.67;;
77214;SDS011;66210;53.282;9.864;2023-07-31T14:30:50;3.03;;;2.50;;
77214;SDS011;66210;53.282;9.864;2023-07-31T14:33:16;5.40;;;2.80;;
77214;SDS011;66210;53.282;9.864;2023-07-31T14:35:43;3.75;;;2.63;;
77214;SDS011;66210;53.282;9.864;2023-07-31T14:38:10;6.05;;;2.80;;
77214;SDS011;66210;53.282;9.864;2023-07-31T14:40:37;3.30;;;2.70;;
77214;SDS011;66210;53.282;9.864;2023-07-31T14:43:04;6.60;;;3.03;;
77214;SDS011;66210;53.282;9.864;2023-07-31T14:45:31;5.05;;;3.15;;
77214;SDS011;66210;53.282;9.864;2023-07-31T14:47:58;4.38;;;3.20;;
77214;SDS011;66210;53.282;9.864;2023-07-31T14:50:25;3.88;;;3.17;;
77214;SDS011;66210;53.282;9.864;2023-07-31T14:52:51;3.28;;;2.72;;
77214;SDS011;66210;53.282;9.864;2023-07-31T14:55:18;4.43;;;3.20;;
77214;SDS011;66210;53.282;9.864;2023-07-31T14:57:45;3.90;;;3.10;;
77214;SDS011;66210;53.282;9.864;2023-07-31T15:00:12;4.40;;;3.35;;
77214;SDS011;66210;53.282;9.864;2023-07-31T15:02:39;4.60;;;3.22;;
77214;SDS011;66210;53.282;9.864;2023-07-31T15:05:06;5.45;;;3.17;;
77214;SDS011;66210;53.282;9.864;2023-07-31T15:07:33;4.70;;;3.05;;
77214;SDS011;66210;53.282;9.864;2023-07-31T15:10:01;9.68;;;3.00;;
77214;SDS011;66210;53.282;9.864;2023-07-31T15:12:28;5.88;;;3.35;;
77214;SDS011;66210;53.282;9.864;2023-07-31T15:14:55;4.55;;;3.70;;